Time;durP1;ratioP1;P1;durP2;ratioP2;P2;SDS_P1;SDS_P2;PMS_P1;PMS_P2;Temp;Humidity;BMP_temperature;BMP_pressure;BME280_temperature;BME280_humidity;BME280_pressure;Samples;Min_cycle;Max_cycle;Signal;HPM_P1;HPM_P2
2022/12/21 00:03:08;;;;;;;15.40;9.90;;;21.90;56.40;;;;;;211975;1317;25299;-59
2022/12/21 00:08:12;;;;;;;16.00;10.90;;;21.80;55.60;;;;;;212030;1308;22593;-57
2022/12/21 00:13:17;;;;;;;14.50;9.80;;;21.80;55.40;;;;;;211876;1316;199792;-56
2022/12/21 00:18:21;;;;;;;14.40;9.60;;;21.80;55.30;;;;;;211995;1302;22510;-58
2022/12/21 00:23:25;;;;;;;13.80;9.70;;;21.70;55.30;;;;;;211939;1309;24036;-57
2022/12/21 00:28:30;;;;;;;14.30;9.30;;;21.70;55.20;;;;;;212021;1303;25511;-57
2022/12/21 00:33:33;;;;;;;13.80;9.60;;;21.70;55.20;;;;;;211903;1314;22529;-57
2022/12/21 00:38:38;;;;;;;14.60;10.20;;;21.60;55.10;;;;;;211858;1302;23943;-57
2022/12/21 00:43:43;;;;;;;18.90;9.50;;;21.60;55.10;;;;;;214161;1302;24322;-57
2022/12/21 00:48:47;;;;;;;14.60;9.50;;;21.50;55.00;;;;;;211951;1302;25341;-58
2022/12/21 00:53:53;;;;;;;13.70;9.90;;;21.50;54.90;;;;;;211780;1318;25182;-57
2022/12/21 00:58:59;;;;;;;14.30;9.70;;;21.40;54.90;;;;;;211857;1303;22487;-57
2022/12/21 01:04:06;;;;;;;14.20;9.70;;;21.40;55.30;;;;;;219473;1309;25285;-60
2022/12/21 01:09:11;;;;;;;15.80;9.40;;;21.40;54.90;;;;;;211633;1313;22595;-57
2022/12/21 01:14:14;;;;;;;21.80;10.70;;;21.40;54.90;;;;;;219718;1299;22274;-57
2022/12/21 01:19:18;;;;;;;23.40;12.60;;;21.30;54.90;;;;;;219259;1296;22573;-60
2022/12/21 01:24:22;;;;;;;22.50;11.60;;;21.30;57.50;;;;;;211683;1312;22561;-55
2022/12/21 01:29:25;;;;;;;20.50;11.90;;;21.30;58.10;;;;;;215351;1318;23867;-57
2022/12/21 01:34:29;;;;;;;19.20;10.10;;;21.30;57.90;;;;;;211898;1309;23920;-57
2022/12/21 01:39:33;;;;;;;20.60;11.20;;;21.20;57.30;;;;;;212012;1317;24045;-59
2022/12/21 01:45:03;;;;;;;25.00;11.70;;;21.20;57.00;;;;;;212061;1294;24311;-56
2022/12/21 01:50:28;;;;;;;18.00;10.80;;;21.10;56.90;;;;;;211977;1310;25293;-59
2022/12/21 01:55:34;;;;;;;19.30;10.60;;;21.10;56.80;;;;;;211746;1312;23915;-57
2022/12/21 02:00:39;;;;;;;15.80;10.30;;;21.00;56.60;;;;;;214114;1303;23642;-58
2022/12/21 02:06:01;;;;;;;19.10;10.80;;;21.00;56.50;;;;;;211788;1317;22484;-57
2022/12/21 02:11:06;;;;;;;16.50;9.10;;;21.00;56.40;;;;;;211859;1301;24880;-57
2022/12/21 02:16:19;;;;;;;19.70;10.20;;;21.00;56.40;;;;;;212136;1299;24341;-56
2022/12/21 02:22:02;;;;;;;17.70;10.60;;;21.40;55.60;;;;;;211997;1299;22656;-58
2022/12/21 02:27:39;;;;;;;15.70;8.90;;;21.60;55.30;;;;;;211997;1305;22498;-61
2022/12/21 02:33:14;;;;;;;18.80;9.70;;;21.80;54.80;;;;;;211353;1316;25303;-58
2022/12/21 02:38:35;;;;;;;18.80;11.10;;;22.00;53.90;;;;;;212001;1297;24332;-59
2022/12/21 02:44:13;;;;;;;15.50;9.10;;;22.20;53.60;;;;;;211973;1299;24247;-59
2022/12/21 02:49:28;;;;;;;14.80;8.90;;;22.30;53.30;;;;;;211894;1312;26201;-59
2022/12/21 02:54:36;;;;;;;15.40;9.60;;;22.40;53.00;;;;;;211956;1303;22648;-59
2022/12/21 02:59:49;;;;;;;14.60;9.30;;;22.50;52.60;;;;;;211782;1302;22465;-58
2022/12/21 03:05:19;;;;;;;14.50;9.10;;;22.50;52.50;;;;;;212236;1300;24398;-58
2022/12/21 03:10:32;;;;;;;14.50;9.20;;;22.60;52.50;;;;;;211889;1309;22593;-58
2022/12/21 03:16:05;;;;;;;14.40;9.30;;;22.60;52.30;;;;;;212123;1311;25307;-60
2022/12/21 03:21:22;;;;;;;14.30;9.40;;;22.60;52.10;;;;;;211976;1317;22544;-58
2022/12/21 03:26:51;;;;;;;12.90;8.00;;;22.70;52.00;;;;;;212047;1309;24029;-58
2022/12/21 03:32:08;;;;;;;13.90;8.60;;;22.70;51.80;;;;;;211836;1309;22721;-60
2022/12/21 03:37:21;;;;;;;16.50;9.10;;;22.70;51.60;;;;;;211780;1310;25181;-58
2022/12/21 03:42:28;;;;;;;12.40;8.50;;;22.80;51.60;;;;;;211874;1310;22560;-59
2022/12/21 03:47:41;;;;;;;13.10;7.90;;;22.80;51.40;;;;;;211974;1300;24382;-59
2022/12/21 03:53:15;;;;;;;12.90;8.10;;;22.80;51.50;;;;;;211896;1310;22501;-58
2022/12/21 03:58:20;;;;;;;13.20;8.30;;;22.90;51.70;;;;;;211967;1296;22513;-60
2022/12/21 04:03:33;;;;;;;12.70;8.50;;;22.80;51.60;;;;;;211952;1296;22477;-60
2022/12/21 04:08:37;;;;;;;11.50;8.70;;;22.90;51.60;;;;;;211744;1300;24601;-59
2022/12/21 04:13:41;;;;;;;13.70;8.70;;;22.90;51.20;;;;;;211704;1305;22551;-58
2022/12/21 04:29:31;;;;;;;11.40;7.50;;;22.70;51.20;;;;;;211936;1304;24731;-56
2022/12/21 04:34:35;;;;;;;11.80;7.70;;;22.60;51.60;;;;;;212036;1299;24267;-58
2022/12/21 04:39:39;;;;;;;12.30;7.80;;;22.50;51.80;;;;;;211932;1316;25407;-59
2022/12/21 04:44:44;;;;;;;11.70;7.60;;;22.40;52.40;;;;;;212020;1299;24917;-59
2022/12/21 04:49:48;;;;;;;10.80;8.10;;;22.30;52.10;;;;;;211975;1310;25490;-56
2022/12/21 04:54:52;;;;;;;12.70;8.20;;;22.20;52.20;;;;;;211875;1309;25532;-58
2022/12/21 04:59:56;;;;;;;12.30;7.70;;;22.10;52.30;;;;;;212030;1303;25878;-57
2022/12/21 05:05:02;;;;;;;10.80;7.20;;;22.00;52.40;;;;;;211793;1303;24695;-57
2022/12/21 05:10:06;;;;;;;12.10;7.50;;;22.00;52.50;;;;;;211965;1318;25044;-58
2022/12/21 05:15:13;;;;;;;11.30;7.70;;;21.90;52.50;;;;;;211720;1301;23911;-56
2022/12/21 05:20:16;;;;;;;11.50;7.40;;;21.90;52.70;;;;;;211980;1311;25374;-57
2022/12/21 05:25:20;;;;;;;10.40;7.40;;;21.80;52.70;;;;;;211983;1318;25119;-55
2022/12/21 05:30:24;;;;;;;12.20;7.60;;;21.70;53.50;;;;;;212315;1309;22556;-59
2022/12/21 05:35:27;;;;;;;11.70;7.60;;;21.70;52.90;;;;;;212111;1308;24249;-57
2022/12/21 05:40:33;;;;;;;10.60;7.50;;;21.70;52.90;;;;;;212124;1302;22718;-58
2022/12/21 05:45:37;;;;;;;10.30;7.30;;;21.60;52.70;;;;;;212061;1310;24025;-58
2022/12/21 05:50:42;;;;;;;13.30;8.20;;;21.50;52.90;;;;;;211905;1299;22481;-58
2022/12/21 05:55:46;;;;;;;10.70;7.20;;;21.50;53.20;;;;;;212026;1306;25619;-59
2022/12/21 06:00:52;;;;;;;12.40;7.30;;;21.40;53.00;;;;;;211880;1296;23407;-58
2022/12/21 06:06:08;;;;;;;9.20;7.10;;;21.40;53.20;;;;;;211898;1300;22570;-59
2022/12/21 06:11:16;;;;;;;9.90;6.90;;;21.30;53.10;;;;;;211772;1310;25297;-59
2022/12/21 06:16:28;;;;;;;11.40;7.00;;;21.30;53.20;;;;;;211636;1304;22598;-57
2022/12/21 06:21:36;;;;;;;10.60;7.20;;;21.30;54.00;;;;;;211847;1297;22518;-59
2022/12/21 06:26:39;;;;;;;10.40;7.10;;;21.60;53.00;;;;;;211997;1302;24024;-58
2022/12/21 06:31:51;;;;;;;9.30;6.80;;;21.80;52.70;;;;;;211899;1312;22653;-60
2022/12/21 06:36:56;;;;;;;11.00;7.00;;;22.00;52.20;;;;;;212026;1316;25304;-57
2022/12/21 06:42:00;;;;;;;12.10;6.40;;;22.20;51.90;;;;;;212004;1316;24292;-57
2022/12/21 06:47:07;;;;;;;10.40;6.60;;;22.30;51.50;;;;;;211804;1303;25370;-57
2022/12/21 06:52:11;;;;;;;9.80;6.40;;;22.40;51.40;;;;;;211944;1300;22471;-58
2022/12/21 06:57:15;;;;;;;9.70;6.40;;;22.50;51.60;;;;;;212068;1296;22752;-59
2022/12/21 07:02:22;;;;;;;9.30;6.50;;;22.50;52.00;;;;;;211944;1296;22465;-58
2022/12/21 07:07:32;;;;;;;20.90;7.70;;;22.50;52.00;;;;;;211939;1296;22478;-58
2022/12/21 07:12:36;;;;;;;13.90;6.80;;;22.60;53.60;;;;;;212032;1314;23903;-58
2022/12/21 07:17:40;;;;;;;12.10;6.30;;;22.60;54.10;;;;;;211895;1303;24200;-58
2022/12/21 07:22:43;;;;;;;14.80;7.50;;;22.60;53.90;;;;;;212047;1311;25491;-56
2022/12/21 07:27:50;;;;;;;15.40;7.00;;;22.70;53.70;;;;;;211977;1304;23871;-59
2022/12/21 07:33:15;;;;;;;11.50;6.80;;;22.70;53.50;;;;;;211788;1302;22486;-57
2022/12/21 07:38:22;;;;;;;17.00;6.80;;;22.70;53.60;;;;;;211950;1300;24332;-58
2022/12/21 07:43:27;;;;;;;12.10;6.30;;;22.70;52.90;;;;;;211869;1300;22588;-59
2022/12/21 07:48:45;;;;;;;12.30;6.70;;;22.70;52.90;;;;;;211714;1316;24237;-55
2022/12/21 07:53:49;;;;;;;17.50;7.20;;;22.70;53.60;;;;;;211837;1302;22482;-59
2022/12/21 07:58:53;;;;;;;14.90;6.50;;;22.70;54.10;;;;;;211836;1300;24372;-58
2022/12/21 08:03:57;;;;;;;15.50;7.10;;;22.60;52.70;;;;;;211969;1313;23900;-59
2022/12/21 08:09:03;;;;;;;14.90;7.50;;;22.50;52.80;;;;;;211846;1288;22602;-60
2022/12/21 08:14:06;;;;;;;10.60;6.50;;;22.40;52.30;;;;;;211894;1299;22546;-57
2022/12/21 08:19:11;;;;;;;13.30;7.20;;;22.20;52.20;;;;;;211850;1303;24092;-57
2022/12/21 08:24:15;;;;;;;14.50;7.70;;;22.20;52.20;;;;;;211893;1299;24815;-60
2022/12/21 08:29:21;;;;;;;12.70;7.60;;;22.00;52.20;;;;;;211997;1305;22726;-59
2022/12/21 08:34:29;;;;;;;13.10;8.10;;;21.90;52.50;;;;;;212300;1316;22504;-59
2022/12/21 08:39:34;;;;;;;12.30;8.00;;;21.80;51.70;;;;;;211943;1299;24295;-59
2022/12/21 08:44:41;;;;;;;14.20;8.10;;;21.70;51.70;;;;;;212057;1312;22480;-57
2022/12/21 08:49:45;;;;;;;11.00;7.50;;;21.60;51.90;;;;;;211956;1296;24389;-59
2022/12/21 08:54:49;;;;;;;12.00;7.80;;;21.60;51.80;;;;;;212112;1315;23891;-56
2022/12/21 08:59:52;;;;;;;11.40;7.70;;;21.50;51.50;;;;;;212014;1315;22522;-58
2022/12/21 09:04:57;;;;;;;9.70;7.60;;;21.50;51.30;;;;;;212231;1316;22707;-58
2022/12/21 09:10:03;;;;;;;13.50;7.70;;;21.50;51.00;;;;;;212130;1304;24441;-57
2022/12/21 09:15:07;;;;;;;11.30;7.30;;;21.50;50.90;;;;;;212199;1301;25268;-56
2022/12/21 09:20:11;;;;;;;13.50;7.60;;;21.40;50.80;;;;;;211891;1293;22721;-58
2022/12/21 09:25:15;;;;;;;12.00;8.30;;;21.40;50.60;;;;;;212212;1308;22492;-60
2022/12/21 09:30:19;;;;;;;11.90;8.00;;;21.30;50.10;;;;;;212087;1292;22485;-59
2022/12/21 09:35:23;;;;;;;12.10;8.00;;;21.50;49.60;;;;;;212235;1302;24292;-58
2022/12/21 09:40:30;;;;;;;11.70;7.80;;;21.80;48.80;;;;;;212031;1301;25089;-59
2022/12/21 09:45:43;;;;;;;10.60;7.80;;;22.00;48.40;;;;;;211942;1302;22843;-61
2022/12/21 09:51:16;;;;;;;11.50;7.90;;;22.10;48.00;;;;;;212071;1317;25464;-60
2022/12/21 09:56:23;;;;;;;11.40;7.40;;;22.20;47.80;;;;;;211997;1301;25391;-58
2022/12/21 10:01:27;;;;;;;10.60;7.00;;;22.30;47.70;;;;;;211909;1309;25291;-60
2022/12/21 10:06:56;;;;;;;11.10;7.70;;;22.40;47.50;;;;;;211937;1315;25303;-59
2022/12/21 10:12:13;;;;;;;10.70;7.40;;;22.50;47.80;;;;;;211893;1314;24372;-60
2022/12/21 10:17:50;;;;;;;9.40;6.60;;;22.50;47.60;;;;;;212005;1310;22507;-61
2022/12/21 10:23:00;;;;;;;12.90;7.20;;;22.50;47.00;;;;;;211970;1301;22543;-60
2022/12/21 10:28:23;;;;;;;14.30;7.00;;;22.50;46.70;;;;;;212045;1316;25273;-61
2022/12/21 10:33:29;;;;;;;13.50;6.80;;;22.50;47.40;;;;;;212078;1316;24318;-61
2022/12/21 10:38:35;;;;;;;12.70;7.50;;;22.40;47.10;;;;;;211962;1315;25558;-61
2022/12/21 10:43:40;;;;;;;11.30;7.40;;;22.50;47.20;;;;;;212091;1299;24398;-59
2022/12/21 10:48:51;;;;;;;11.40;7.10;;;22.50;47.00;;;;;;212020;1310;25308;-53
2022/12/21 10:54:03;;;;;;;10.50;7.20;;;22.60;46.80;;;;;;212008;1303;22526;-59
2022/12/21 10:59:25;;;;;;;11.30;7.70;;;22.60;46.60;;;;;;212052;1302;22644;-60
2022/12/21 11:04:32;;;;;;;11.30;7.40;;;22.60;46.50;;;;;;211770;1303;22605;-58
2022/12/21 11:09:41;;;;;;;10.40;7.50;;;22.60;46.70;;;;;;212047;1309;22849;-61
2022/12/21 11:15:05;;;;;;;10.50;7.50;;;22.70;46.30;;;;;;212084;1315;25285;-59
2022/12/21 11:20:33;;;;;;;10.40;7.20;;;22.70;46.20;;;;;;211650;1297;24234;-58
2022/12/21 11:25:44;;;;;;;11.30;7.90;;;22.80;46.20;;;;;;211948;1310;25490;-60
2022/12/21 11:31:04;;;;;;;11.90;7.90;;;22.80;46.50;;;;;;212032;1301;25463;-60
2022/12/21 11:36:17;;;;;;;74.90;42.20;;;22.80;46.80;;;;;;212104;1300;23242;-61
2022/12/21 11:41:29;;;;;;;67.60;40.00;;;22.80;46.50;;;;;;212044;1302;24386;-58
2022/12/21 11:47:14;;;;;;;68.70;38.10;;;22.80;46.30;;;;;;211917;1317;22538;-60
2022/12/21 11:52:47;;;;;;;62.90;36.10;;;22.90;45.90;;;;;;211380;1303;22494;-59
2022/12/21 11:57:54;;;;;;;74.20;42.40;;;22.90;46.10;;;;;;211898;1309;22620;-56
2022/12/21 12:03:33;;;;;;;68.40;39.00;;;22.90;46.20;;;;;;211774;1304;24264;-60
2022/12/21 12:09:16;;;;;;;62.00;36.60;;;23.00;45.90;;;;;;211497;1304;22740;-59
2022/12/21 12:14:44;;;;;;;63.50;36.20;;;23.10;45.80;;;;;;213187;1317;333676;-58
2022/12/21 12:20:04;;;;;;;63.30;35.70;;;23.10;45.70;;;;;;211860;1312;22488;-60
2022/12/21 12:25:30;;;;;;;56.80;34.30;;;23.10;45.60;;;;;;212037;1304;22729;-59
2022/12/21 12:30:52;;;;;;;75.40;45.00;;;23.20;45.60;;;;;;212046;1317;25292;-60
2022/12/21 12:36:16;;;;;;;68.10;38.60;;;23.20;45.50;;;;;;211995;1301;24303;-60
2022/12/21 12:41:29;;;;;;;63.10;38.50;;;23.20;45.70;;;;;;212046;1303;22479;-58
2022/12/21 12:46:55;;;;;;;65.70;37.60;;;23.10;46.00;;;;;;212085;1311;25283;-62
2022/12/21 12:52:23;;;;;;;58.50;35.60;;;23.00;45.80;;;;;;211995;1309;22477;-60
2022/12/21 12:58:02;;;;;;;53.20;33.10;;;22.90;46.60;;;;;;212162;1295;22490;-60
2022/12/21 13:03:07;;;;;;;55.70;33.50;;;22.70;46.80;;;;;;212043;1303;22554;-58
2022/12/21 13:08:46;;;;;;;55.70;34.20;;;22.60;47.10;;;;;;212155;1301;24261;-59
2022/12/21 13:14:26;;;;;;;54.00;31.20;;;22.50;46.90;;;;;;212187;1316;22623;-60
2022/12/21 13:19:43;;;;;;;52.70;30.60;;;22.40;47.00;;;;;;212156;1310;22690;-58
2022/12/21 13:25:14;;;;;;;49.10;29.60;;;22.30;47.10;;;;;;212007;1317;23858;-60
2022/12/21 13:30:30;;;;;;;51.60;30.50;;;22.20;47.30;;;;;;211795;1312;25302;-58
2022/12/21 13:36:02;;;;;;;49.50;30.30;;;22.10;47.40;;;;;;211794;1303;22751;-58
2022/12/21 13:41:14;;;;;;;46.70;28.80;;;22.00;47.40;;;;;;212008;1303;25234;-58
2022/12/21 13:46:20;;;;;;;47.30;28.00;;;21.90;47.60;;;;;;211782;1303;24230;-61
2022/12/21 13:51:46;;;;;;;43.90;27.50;;;21.90;47.80;;;;;;211918;1317;22496;-61
2022/12/21 13:57:27;;;;;;;48.50;29.40;;;21.90;48.30;;;;;;211759;1317;25343;-60
2022/12/21 14:02:53;;;;;;;51.60;27.80;;;21.80;48.60;;;;;;212017;1302;22573;-60
2022/12/21 14:08:02;;;;;;;47.40;26.90;;;21.80;48.20;;;;;;211931;1307;22686;-59
2022/12/21 14:13:34;;;;;;;41.50;24.20;;;21.80;49.30;;;;;;211861;1316;22522;-59
2022/12/21 14:18:52;;;;;;;43.10;25.00;;;21.70;49.50;;;;;;211966;1300;22543;-59
2022/12/21 14:24:05;;;;;;;39.10;24.30;;;21.60;50.00;;;;;;211922;1297;22563;-55
2022/12/21 14:29:32;;;;;;;41.20;23.80;;;21.60;49.50;;;;;;211936;1312;25242;-57
2022/12/21 14:34:44;;;;;;;40.20;23.70;;;21.50;49.50;;;;;;212043;1292;22498;-57
2022/12/21 14:40:24;;;;;;;36.40;23.00;;;21.50;50.00;;;;;;211621;1316;25291;-57
2022/12/21 14:45:33;;;;;;;37.10;22.70;;;21.50;49.90;;;;;;211737;1309;22856;-55
2022/12/21 14:51:30;;;;;;;36.30;21.60;;;21.40;49.90;;;;;;211966;1300;22972;-51
2022/12/21 14:57:07;;;;;;;37.00;21.80;;;21.40;50.50;;;;;;211903;1301;22478;-56
2022/12/21 15:02:26;;;;;;;37.60;22.50;;;21.40;49.80;;;;;;212088;1299;23233;-57
2022/12/21 15:07:46;;;;;;;42.80;28.90;;;21.40;50.10;;;;;;212057;1314;24499;-57
2022/12/21 15:13:19;;;;;;;51.80;34.20;;;21.30;50.30;;;;;;211638;1294;22737;-56
2022/12/21 15:18:44;;;;;;;53.00;35.00;;;21.40;50.80;;;;;;211959;1299;24587;-53
2022/12/21 15:24:09;;;;;;;46.30;32.20;;;21.60;50.20;;;;;;211947;1317;25262;-54
2022/12/21 15:29:55;;;;;;;42.10;28.40;;;21.80;49.60;;;;;;211969;1303;24288;-50
2022/12/21 15:35:29;;;;;;;43.30;29.00;;;22.10;48.90;;;;;;211957;1299;24329;-53
2022/12/21 15:40:38;;;;;;;43.40;28.80;;;22.30;48.80;;;;;;210895;1305;24300;-54
2022/12/21 15:46:02;;;;;;;39.60;28.00;;;22.50;48.40;;;;;;210774;1305;24523;-52
2022/12/21 15:51:29;;;;;;;41.10;28.90;;;22.50;48.10;;;;;;210839;1320;22637;-54
2022/12/21 15:56:35;;;;;;;41.20;29.40;;;22.60;48.40;;;;;;211054;1299;24415;-56
2022/12/21 16:01:40;;;;;;;39.20;28.30;;;22.70;47.70;;;;;;211072;1310;22486;-54
2022/12/21 16:06:53;;;;;;;41.90;28.80;;;22.70;47.60;;;;;;211029;1318;24365;-59
2022/12/21 16:12:33;;;;;;;39.80;27.40;;;22.80;47.80;;;;;;210646;1307;22607;-55
2022/12/21 16:18:06;;;;;;;38.30;26.80;;;22.70;47.90;;;;;;210863;1305;22494;-55
2022/12/21 16:23:17;;;;;;;39.30;25.60;;;22.70;48.70;;;;;;211345;1304;23532;-55
2022/12/21 16:28:28;;;;;;;37.70;26.90;;;22.80;49.30;;;;;;211087;1314;25293;-54
2022/12/21 16:33:55;;;;;;;36.40;25.50;;;22.80;50.00;;;;;;210841;1320;22727;-55
2022/12/21 16:39:05;;;;;;;31.20;22.60;;;22.90;50.10;;;;;;211000;1320;22645;-55
2022/12/21 16:44:14;;;;;;;33.80;23.50;;;22.90;50.50;;;;;;211869;1315;25515;-55
2022/12/21 16:49:27;;;;;;;32.00;24.20;;;22.80;50.70;;;;;;211483;1299;22497;-55
2022/12/21 16:54:52;;;;;;;29.70;22.00;;;22.90;51.30;;;;;;211864;1294;24450;-52
2022/12/21 17:00:15;;;;;;;32.80;23.70;;;22.80;52.70;;;;;;211762;1299;24373;-52
2022/12/21 17:05:48;;;;;;;30.90;21.80;;;22.80;52.90;;;;;;211903;1317;22503;-52
2022/12/21 17:11:07;;;;;;;27.50;19.50;;;22.70;53.60;;;;;;211734;1310;22500;-53
2022/12/21 17:16:36;;;;;;;28.60;18.50;;;22.70;53.60;;;;;;211801;1318;25781;-52
2022/12/21 17:22:17;;;;;;;27.30;19.60;;;22.60;53.90;;;;;;211502;1317;22858;-52
2022/12/21 17:27:55;;;;;;;27.70;17.90;;;22.50;53.90;;;;;;211479;1313;22572;-54
2022/12/21 17:33:07;;;;;;;26.70;18.00;;;22.40;53.90;;;;;;211581;1305;23475;-50
2022/12/21 17:38:11;;;;;;;25.80;17.00;;;22.30;54.10;;;;;;211484;1304;22901;-48
2022/12/21 17:43:17;;;;;;;25.00;17.60;;;22.20;54.80;;;;;;211822;1300;22493;-52
2022/12/21 17:48:42;;;;;;;28.30;17.90;;;22.10;54.60;;;;;;211374;1299;22531;-50
2022/12/21 17:53:52;;;;;;;25.00;17.30;;;22.00;55.10;;;;;;211388;1303;22677;-51
2022/12/21 17:58:59;;;;;;;26.40;17.00;;;22.00;55.60;;;;;;211855;1302;22541;-50
2022/12/21 18:04:03;;;;;;;25.50;17.00;;;21.90;55.10;;;;;;211667;1306;22607;-53
2022/12/21 18:09:13;;;;;;;27.10;16.70;;;21.80;55.70;;;;;;212043;1303;25233;-58
2022/12/21 18:14:17;;;;;;;23.20;15.60;;;21.70;56.10;;;;;;211874;1311;26557;-60
2022/12/21 18:19:22;;;;;;;21.10;15.50;;;21.70;56.00;;;;;;211923;1306;22562;-60
2022/12/21 18:24:35;;;;;;;22.70;15.30;;;21.70;57.10;;;;;;211668;1305;22513;-59
2022/12/21 18:29:41;;;;;;;23.40;15.50;;;21.60;57.50;;;;;;211709;1297;22726;-58
2022/12/21 18:34:47;;;;;;;26.10;15.30;;;21.50;57.30;;;;;;211731;1317;22531;-57
2022/12/21 18:39:51;;;;;;;21.00;16.20;;;21.40;57.20;;;;;;212031;1296;24256;-58
2022/12/21 18:44:59;;;;;;;21.80;14.60;;;21.50;57.40;;;;;;211809;1316;22907;-57
2022/12/21 18:50:22;;;;;;;27.40;19.40;;;21.40;57.80;;;;;;212430;1316;22956;-54
2022/12/21 18:55:28;;;;;;;25.10;17.80;;;21.40;57.80;;;;;;216103;1305;22493;-56
2022/12/21 19:00:44;;;;;;;23.40;17.00;;;21.30;58.50;;;;;;211910;1309;22716;-60
2022/12/21 19:05:50;;;;;;;22.60;16.60;;;21.40;58.10;;;;;;212051;1308;24214;-60
2022/12/21 19:10:53;;;;;;;23.40;17.50;;;21.20;57.60;;;;;;211672;1296;24292;-58
2022/12/21 19:30:40;;;;;;;21.50;15.70;;;21.40;57.60;;;;;;211862;1300;23898;-52
2022/12/21 19:35:57;;;;;;;20.30;14.10;;;21.80;56.90;;;;;;211918;1296;25119;-54
2022/12/21 19:41:09;;;;;;;21.20;14.20;;;22.00;57.20;;;;;;211860;1298;22601;-51
2022/12/21 19:46:26;;;;;;;26.10;16.50;;;22.30;56.70;;;;;;212104;1297;22592;-52
2022/12/21 19:58:38;;;;;;;23.80;14.70;;;22.50;55.60;;;;;;211752;1309;22620;-60
2022/12/21 20:03:42;;;;;;;20.00;14.50;;;22.50;56.10;;;;;;211874;1303;23085;-58
2022/12/21 20:08:46;;;;;;;22.00;14.90;;;22.50;56.00;;;;;;212060;1308;25594;-60
2022/12/21 20:13:57;;;;;;;18.70;14.90;;;22.70;56.80;;;;;;212041;1317;25372;-57
2022/12/21 20:19:10;;;;;;;26.20;15.20;;;22.70;56.40;;;;;;211778;1313;22500;-54
2022/12/21 20:24:17;;;;;;;22.30;16.20;;;22.80;57.20;;;;;;211864;1318;25435;-57
2022/12/21 20:29:22;;;;;;;25.80;14.60;;;22.80;57.40;;;;;;212010;1303;25540;-56
2022/12/21 20:34:27;;;;;;;23.30;14.90;;;22.70;57.70;;;;;;211841;1296;22578;-58
2022/12/21 20:39:32;;;;;;;25.00;15.90;;;22.80;57.70;;;;;;212100;1300;22548;-58
2022/12/21 20:44:39;;;;;;;29.20;15.50;;;22.70;58.20;;;;;;212360;1305;22488;-58
2022/12/21 20:49:45;;;;;;;28.90;14.00;;;22.70;59.70;;;;;;211859;1299;24227;-59
2022/12/21 20:54:50;;;;;;;18.50;13.20;;;22.70;59.90;;;;;;211966;1300;22490;-58
2022/12/21 20:59:54;;;;;;;22.70;13.90;;;22.50;59.30;;;;;;211942;1318;26184;-56
2022/12/21 21:04:58;;;;;;;46.30;14.20;;;22.40;58.70;;;;;;211930;1312;22473;-57
2022/12/21 21:10:11;;;;;;;20.40;14.70;;;22.30;58.80;;;;;;211864;1299;22550;-55
2022/12/21 21:15:17;;;;;;;21.10;14.40;;;22.20;58.50;;;;;;211724;1305;22530;-54
2022/12/21 21:25:59;;;;;;;20.00;13.00;;;22.00;59.60;;;;;;211910;1303;22575;-59
2022/12/21 21:31:12;;;;;;;20.60;13.90;;;22.00;58.50;;;;;;212043;1304;24251;-58
2022/12/21 21:36:20;;;;;;;21.00;13.40;;;21.90;58.50;;;;;;212119;1303;23422;-58
2022/12/21 21:41:40;;;;;;;20.50;13.10;;;21.80;58.60;;;;;;212034;1300;26496;-59
2022/12/21 21:46:45;;;;;;;23.60;13.30;;;21.80;61.20;;;;;;211848;1302;24282;-58
2022/12/21 21:51:51;;;;;;;23.30;13.40;;;21.80;60.70;;;;;;212036;1316;22486;-59
2022/12/21 21:57:00;;;;;;;23.50;14.00;;;21.70;61.40;;;;;;212037;1298;22495;-55
2022/12/21 22:02:07;;;;;;;25.20;15.20;;;21.60;61.90;;;;;;211289;1307;25469;-55
2022/12/21 22:07:11;;;;;;;24.30;13.90;;;21.50;61.50;;;;;;211818;1300;22486;-58
2022/12/21 22:12:21;;;;;;;20.60;13.70;;;21.50;61.80;;;;;;211992;1301;25344;-59
2022/12/21 22:17:25;;;;;;;19.70;13.00;;;21.40;61.90;;;;;;212084;1297;22494;-58
2022/12/21 22:33:15;;;;;;;21.10;13.20;;;21.30;62.30;;;;;;211985;1312;22600;-59
2022/12/21 22:43:42;;;;;;;17.60;13.00;;;21.10;62.90;;;;;;211890;1293;22482;-58
2022/12/21 22:48:46;;;;;;;19.20;13.40;;;21.10;62.80;;;;;;212060;1297;24251;-58
2022/12/21 22:53:54;;;;;;;19.20;12.80;;;21.10;63.00;;;;;;212029;1318;25601;-55
2022/12/21 22:59:02;;;;;;;18.60;12.70;;;21.30;62.00;;;;;;211931;1308;22479;-60
2022/12/21 23:04:21;;;;;;;20.20;11.80;;;21.60;61.70;;;;;;211897;1306;22873;-59
2022/12/21 23:09:25;;;;;;;16.00;11.20;;;21.80;61.10;;;;;;211995;1299;24784;-59
2022/12/21 23:14:47;;;;;;;15.30;10.50;;;22.10;66.00;;;;;;211817;1296;22869;-59
2022/12/21 23:19:51;;;;;;;15.60;10.90;;;22.20;63.70;;;;;;211801;1302;24188;-58
